createdAt,value
2023-03-13T00:01:41.920Z,98977.83
2023-03-13T00:05:39.850Z,98982.55
2023-03-13T00:09:37.741Z,98979.26
2023-03-13T00:13:35.817Z,98976.46
2023-03-13T00:17:33.779Z,98979.30
2023-03-13T00:21:41.794Z,98975.19
2023-03-13T00:25:39.774Z,98979.36
2023-03-13T00:29:37.733Z,98974.14
2023-03-13T00:33:37.735Z,98974.99
2023-03-13T00:37:35.756Z,98971.83
2023-03-13T00:41:38.766Z,98973.21
2023-03-13T00:45:36.745Z,98977.20
2023-03-13T00:49:34.718Z,98969.52
2023-03-13T00:53:32.715Z,98960.29
2023-03-13T00:57:30.681Z,98945.84
2023-03-13T01:01:34.729Z,98929.16
2023-03-13T01:05:32.889Z,98935.08
2023-03-13T01:09:31.719Z,98934.77
2023-03-13T01:13:29.762Z,98932.59
2023-03-13T01:17:27.761Z,98915.47
2023-03-13T01:21:26.630Z,98927.63
2023-03-13T01:25:24.824Z,98926.52
2023-03-13T01:29:22.669Z,98916.66
2023-03-13T01:33:20.623Z,98912.35
2023-03-13T01:37:18.632Z,98906.46
2023-03-13T01:41:16.663Z,98902.80
2023-03-13T01:45:14.618Z,98904.05
2023-03-13T01:49:17.646Z,98896.10
2023-03-13T01:53:47.626Z,98884.11
2023-03-13T01:57:52.626Z,98879.30
2023-03-13T02:01:50.625Z,98881.02
2023-03-13T02:05:48.753Z,98870.17
2023-03-13T02:09:48.565Z,98873.63
2023-03-13T02:13:46.645Z,98873.94
2023-03-13T02:17:44.624Z,98873.47
2023-03-13T02:21:45.585Z,98872.27
2023-03-13T02:25:50.614Z,98877.77
2023-03-13T02:29:56.631Z,98885.13
2023-03-13T02:33:56.514Z,98888.64
2023-03-13T02:37:56.545Z,98889.45
2023-03-13T02:41:56.547Z,98891.02
2023-03-13T02:45:55.542Z,98890.52
2023-03-13T02:49:53.549Z,98886.52
2023-03-13T02:53:51.579Z,98879.20
2023-03-13T02:57:49.608Z,98873.81
2023-03-13T03:01:47.548Z,98875.60
2023-03-13T03:05:46.490Z,98868.02
2023-03-13T03:09:44.573Z,98867.28
2023-03-13T03:13:43.580Z,98863.56
2023-03-13T03:17:41.542Z,98867.04
2023-03-13T03:21:39.483Z,98879.03
2023-03-13T03:25:38.534Z,98874.52
2023-03-13T03:29:36.539Z,98870.64
2023-03-13T03:33:35.545Z,98876.27
2023-03-13T03:37:34.416Z,98874.39
2023-03-13T03:41:33.516Z,98870.23
2023-03-13T03:45:31.452Z,98875.61
2023-03-13T03:49:29.477Z,98869.97
2023-03-13T03:53:27.450Z,98860.36
2023-03-13T03:57:25.535Z,98859.84
2023-03-13T04:01:16.770Z,98860.50
2023-03-13T04:05:14.396Z,98851.77
2023-03-13T04:09:12.512Z,98852.75
2023-03-13T04:13:10.491Z,98848.77
2023-03-13T04:17:09.404Z,98849.63
2023-03-13T04:21:18.409Z,98856.52
2023-03-13T04:25:21.380Z,98860.59
2023-03-13T04:29:22.475Z,98857.02
2023-03-13T04:33:34.494Z,98855.23
2023-03-13T04:37:52.448Z,98852.46
2023-03-13T04:42:13.367Z,98851.40
2023-03-13T04:46:26.563Z,98856.86
2023-03-13T04:50:27.352Z,98855.27
2023-03-13T04:54:34.369Z,98851.56
2023-03-13T04:58:46.955Z,98846.34
2023-03-13T05:02:51.387Z,98844.46
2023-03-13T05:06:57.395Z,98847.05
2023-03-13T05:11:02.321Z,98842.70
2023-03-13T05:15:18.315Z,98836.37
2023-03-13T05:19:35.404Z,98843.73
2023-03-13T05:23:53.288Z,98833.87
2023-03-13T05:28:11.400Z,98830.95
2023-03-13T05:32:38.389Z,98824.60
2023-03-13T05:37:02.456Z,98826.00
2023-03-13T05:40:42.514Z,98831.70
2023-03-13T05:44:32.462Z,98825.75
2023-03-13T05:48:15.529Z,98825.53
2023-03-13T05:52:25.379Z,98827.34
2023-03-13T05:56:20.395Z,98824.81
2023-03-13T06:00:26.264Z,98825.35
2023-03-13T06:04:24.524Z,98825.63
2023-03-13T06:08:09.338Z,98829.84
2023-03-13T06:11:47.346Z,98825.77
2023-03-13T06:15:31.275Z,98812.48
2023-03-13T06:19:22.699Z,98811.59
2023-03-13T06:23:06.235Z,98813.89
2023-03-13T06:26:43.332Z,98813.34
2023-03-13T06:30:27.272Z,98807.65
2023-03-13T06:34:04.314Z,98807.21
2023-03-13T06:37:48.307Z,98807.61
2023-03-13T06:41:25.526Z,98807.52
2023-03-13T06:45:10.279Z,98807.16
2023-03-13T06:49:11.159Z,98809.59
2023-03-13T06:53:09.193Z,98805.62
2023-03-13T06:57:07.278Z,98808.29
2023-03-13T07:00:45.245Z,98805.64
2023-03-13T07:04:13.886Z,98810.66
2023-03-13T07:07:38.764Z,98810.90
2023-03-13T07:11:06.108Z,98811.35
2023-03-13T07:14:30.336Z,98811.38
2023-03-13T07:17:54.216Z,98813.90
2023-03-13T07:21:18.408Z,98808.30
2023-03-13T07:24:42.359Z,98804.15
2023-03-13T07:28:06.481Z,98804.74
2023-03-13T07:31:34.016Z,98807.01
2023-03-13T07:34:58.344Z,98808.68
2023-03-13T07:38:22.372Z,98804.20
2023-03-13T07:41:46.497Z,98795.05
2023-03-13T07:45:13.527Z,98791.13
2023-03-13T07:48:40.001Z,98792.24
2023-03-13T07:52:06.168Z,98788.52
2023-03-13T07:55:30.232Z,98783.30
2023-03-13T07:58:54.161Z,98778.52
2023-03-13T08:02:18.536Z,98774.69
2023-03-13T08:05:43.526Z,98773.27
2023-03-13T08:09:07.611Z,98773.65
2023-03-13T08:12:31.562Z,98770.13
2023-03-13T08:16:12.785Z,98766.48
2023-03-13T08:19:36.667Z,98760.34
2023-03-13T08:23:00.996Z,98761.05
2023-03-13T08:26:27.752Z,98758.08
2023-03-13T08:29:51.621Z,98750.84
2023-03-13T08:33:15.485Z,98754.07
2023-03-13T08:36:39.703Z,98751.74
2023-03-13T08:40:10.373Z,98746.73
2023-03-13T08:43:34.448Z,98751.33
2023-03-13T08:47:00.147Z,98745.66
2023-03-13T08:50:24.216Z,98747.69
2023-03-13T08:53:48.614Z,98738.73
2023-03-13T08:57:12.795Z,98742.35
2023-03-13T09:00:36.591Z,98740.83
2023-03-13T09:04:04.182Z,98739.96
2023-03-13T09:07:28.329Z,98730.95
2023-03-13T09:11:00.769Z,98733.73
2023-03-13T09:14:24.727Z,98726.13
2023-03-13T09:17:48.597Z,98725.90
2023-03-13T09:21:24.222Z,98728.60
2023-03-13T09:24:48.211Z,98726.98
2023-03-13T09:28:12.246Z,98723.36
2023-03-13T09:31:36.210Z,98720.89
2023-03-13T09:35:00.185Z,98720.63
2023-03-13T09:38:24.133Z,98720.48
2023-03-13T09:42:19.510Z,98716.46
2023-03-13T09:45:47.321Z,98710.04
2023-03-13T09:49:19.254Z,98713.42
2023-03-13T09:52:44.056Z,98703.59
2023-03-13T09:56:17.697Z,98698.77
2023-03-13T09:59:43.709Z,98690.93
2023-03-13T10:03:21.900Z,98686.20
2023-03-13T10:06:48.776Z,98689.51
2023-03-13T10:10:18.065Z,98682.52
2023-03-13T10:13:58.725Z,98684.10
2023-03-13T10:17:31.478Z,98679.27
2023-03-13T10:21:01.514Z,98670.75
2023-03-13T10:24:36.578Z,98662.77
2023-03-13T10:28:01.581Z,98657.83
2023-03-13T10:31:33.436Z,98653.59
2023-03-13T10:35:03.205Z,98650.23
2023-03-13T10:38:27.295Z,98646.84
2023-03-13T10:41:53.324Z,98642.16
2023-03-13T10:45:25.250Z,98638.63
2023-03-13T10:48:49.506Z,98639.09
2023-03-13T10:52:30.533Z,98629.30
2023-03-13T10:55:56.850Z,98619.92
2023-03-13T10:59:24.958Z,98602.33
2023-03-13T11:02:48.872Z,98598.88
2023-03-13T11:06:29.950Z,98593.74
2023-03-13T11:10:19.279Z,98595.98
2023-03-13T11:13:45.657Z,98594.66
2023-03-13T11:17:26.455Z,98589.21
2023-03-13T11:20:53.745Z,98590.06
2023-03-13T11:24:55.660Z,98580.83
2023-03-13T11:28:44.227Z,98569.98
2023-03-13T11:32:21.943Z,98558.02
2023-03-13T11:35:51.211Z,98555.94
2023-03-13T11:39:37.161Z,98549.89
2023-03-13T11:43:23.619Z,98539.93
2023-03-13T11:47:10.271Z,98536.10
2023-03-13T11:51:13.130Z,98530.77
2023-03-13T11:54:37.220Z,98519.66
2023-03-13T11:58:07.041Z,98514.70
2023-03-13T12:01:39.318Z,98505.30
2023-03-13T12:05:09.816Z,98505.40
2023-03-13T12:08:56.361Z,98500.22
2023-03-13T12:12:32.341Z,98498.25
2023-03-13T12:16:02.040Z,98491.69
2023-03-13T12:19:48.914Z,98489.71
2023-03-13T12:23:20.580Z,98484.85
2023-03-13T12:27:16.045Z,98479.27
2023-03-13T12:31:17.987Z,98472.30
2023-03-13T12:35:07.086Z,98460.91
2023-03-13T12:38:38.702Z,98460.98
2023-03-13T12:42:18.509Z,98453.01
2023-03-13T12:46:14.770Z,98452.76
2023-03-13T12:49:41.442Z,98446.65
2023-03-13T12:53:11.185Z,98446.93
2023-03-13T12:56:45.683Z,98439.99
2023-03-13T13:00:22.537Z,98437.88
2023-03-13T13:03:54.490Z,98437.80
2023-03-13T13:07:24.196Z,98425.44
2023-03-13T13:10:48.393Z,98421.56
2023-03-13T13:14:18.230Z,98415.04
2023-03-13T13:18:01.022Z,98409.63
2023-03-13T13:21:27.562Z,98417.08
2023-03-13T13:24:53.260Z,98412.95
2023-03-13T13:28:21.893Z,98419.66
2023-03-13T13:31:59.538Z,98417.54
2023-03-13T13:35:25.811Z,98413.59
2023-03-13T13:38:49.740Z,98417.17
2023-03-13T13:42:32.064Z,98404.27
2023-03-13T13:46:07.319Z,98410.27
2023-03-13T13:49:36.316Z,98408.70
2023-03-13T13:53:34.895Z,98403.16
2023-03-13T13:57:11.435Z,98396.09
2023-03-13T14:00:55.080Z,98391.35
2023-03-13T14:04:41.961Z,98384.20
2023-03-13T14:08:14.776Z,98372.38
2023-03-13T14:11:40.723Z,98366.38
2023-03-13T14:15:14.775Z,98360.70
2023-03-13T14:18:43.423Z,98354.45
2023-03-13T14:22:14.358Z,98343.20
2023-03-13T14:25:44.032Z,98342.25
2023-03-13T14:29:08.327Z,98334.63
2023-03-13T14:32:53.814Z,98334.06
2023-03-13T14:37:17.791Z,98331.92
2023-03-13T14:41:15.701Z,98331.94
2023-03-13T14:45:15.626Z,98325.31
2023-03-13T14:49:31.746Z,98329.25
2023-03-13T14:53:35.611Z,98328.25
2023-03-13T14:57:36.601Z,98332.45
2023-03-13T15:01:41.677Z,98336.74
2023-03-13T15:05:47.728Z,98334.05
2023-03-13T15:09:45.703Z,98335.76
2023-03-13T15:13:52.643Z,98331.19
2023-03-13T15:17:50.672Z,98334.36
2023-03-13T15:21:48.879Z,98337.95
2023-03-13T15:25:47.655Z,98342.19
2023-03-13T15:29:45.632Z,98339.67
2023-03-13T15:33:44.637Z,98336.72
2023-03-13T15:37:44.620Z,98340.81
2023-03-13T15:41:42.546Z,98341.55
2023-03-13T15:45:40.611Z,98347.62
2023-03-13T15:49:38.531Z,98337.17
2023-03-13T15:53:39.647Z,98330.17
2023-03-13T15:57:39.552Z,98323.81
2023-03-13T16:01:19.396Z,98323.27
2023-03-13T16:04:44.527Z,98317.69
2023-03-13T16:08:08.579Z,98314.73
2023-03-13T16:11:32.818Z,98308.45
2023-03-13T16:14:56.682Z,98304.39
2023-03-13T16:18:23.156Z,98297.95
2023-03-13T16:21:48.628Z,98293.71
2023-03-13T16:25:32.474Z,98292.71
2023-03-13T16:29:30.586Z,98297.80
2023-03-13T16:33:28.488Z,98295.95
2023-03-13T16:37:32.525Z,98299.11
2023-03-13T16:41:34.457Z,98298.80
2023-03-13T16:45:32.542Z,98295.48
2023-03-13T16:49:30.606Z,98290.09
2023-03-13T16:53:28.530Z,98282.33
2023-03-13T16:57:28.614Z,98277.39
2023-03-13T17:01:26.689Z,98271.95
2023-03-13T17:05:25.441Z,98264.79
2023-03-13T17:18:31.473Z,98279.95
2023-03-13T17:22:31.401Z,98278.48
2023-03-13T17:26:31.451Z,98283.78
2023-03-13T17:30:41.514Z,98288.34
2023-03-13T17:34:39.459Z,98291.83
2023-03-13T17:38:37.470Z,98297.27
2023-03-13T17:42:35.551Z,98299.13
2023-03-13T17:46:40.539Z,98295.42
2023-03-13T17:50:41.509Z,98295.67
2023-03-13T17:54:39.424Z,98296.50
2023-03-13T17:58:37.708Z,98291.94
2023-03-13T18:02:36.422Z,98292.04
2023-03-13T18:06:43.572Z,98298.21
2023-03-13T18:10:43.418Z,98301.90
2023-03-13T18:14:42.402Z,98295.06
2023-03-13T18:18:40.366Z,98296.55
2023-03-13T18:22:39.451Z,98293.95
2023-03-13T18:26:46.388Z,98287.55
2023-03-13T18:30:46.355Z,98290.08
2023-03-13T18:34:44.374Z,98282.08
2023-03-13T18:38:42.387Z,98284.77
2023-03-13T18:42:40.337Z,98276.62
2023-03-13T18:46:41.398Z,98267.17
2023-03-13T18:50:47.417Z,98266.80
2023-03-13T18:54:45.483Z,98258.02
2023-03-13T18:58:43.302Z,98264.42
2023-03-13T19:02:41.398Z,98263.13
2023-03-13T19:06:42.276Z,98260.73
2023-03-13T19:10:45.367Z,98262.00
2023-03-13T19:14:43.291Z,98257.20
2023-03-13T19:18:41.426Z,98250.05
2023-03-13T19:22:40.273Z,98244.42
2023-03-13T19:26:44.308Z,98249.58
2023-03-13T19:30:43.294Z,98254.23
2023-03-13T19:34:41.330Z,98254.86
2023-03-13T19:38:39.244Z,98252.48
2023-03-13T19:42:37.322Z,98246.97
2023-03-13T19:46:40.274Z,98249.28
2023-03-13T19:50:40.559Z,98246.44
2023-03-13T19:54:38.438Z,98250.80
2023-03-13T19:58:36.360Z,98251.07
2023-03-13T20:02:34.577Z,98252.45
2023-03-13T20:06:37.271Z,98239.98
2023-03-13T20:10:36.232Z,98233.81
2023-03-13T20:14:35.320Z,98228.66
2023-03-13T20:18:33.226Z,98225.56
2023-03-13T20:22:31.226Z,98222.37
2023-03-13T20:26:31.207Z,98214.23
2023-03-13T20:30:30.341Z,98207.39
2023-03-13T20:34:28.216Z,98206.65
2023-03-13T20:38:26.293Z,98212.71
2023-03-13T20:42:24.376Z,98213.91
2023-03-13T20:46:24.497Z,98213.41
2023-03-13T20:50:22.209Z,98214.02
2023-03-13T20:54:20.204Z,98218.01
2023-03-13T20:58:19.270Z,98215.96
2023-03-13T21:02:17.290Z,98213.36
2023-03-13T21:06:15.173Z,98203.56
2023-03-13T21:10:13.195Z,98198.52
2023-03-13T21:14:11.242Z,98195.68
2023-03-13T21:18:09.355Z,98195.95
2023-03-13T21:22:07.241Z,98193.04
2023-03-13T21:26:09.199Z,98193.90
2023-03-13T21:30:07.129Z,98188.74
2023-03-13T21:34:05.383Z,98189.13
2023-03-13T21:38:03.102Z,98183.35
2023-03-13T21:42:02.244Z,98179.59
2023-03-13T21:46:01.145Z,98174.34
2023-03-13T21:49:59.104Z,98172.42
2023-03-13T21:53:57.153Z,98168.63
2023-03-13T21:57:56.109Z,98167.64
2023-03-13T22:01:54.195Z,98164.27
2023-03-13T22:05:57.137Z,98174.61
2023-03-13T22:09:56.186Z,98176.02
2023-03-13T22:13:55.183Z,98181.23
2023-03-13T22:17:53.126Z,98166.02
2023-03-13T22:21:51.093Z,98167.35
2023-03-13T22:25:49.031Z,98166.81
2023-03-13T22:29:48.088Z,98162.25
2023-03-13T22:33:47.031Z,98157.02
2023-03-13T22:37:45.104Z,98149.92
2023-03-13T22:41:43.022Z,98148.99
2023-03-13T22:45:41.182Z,98142.53
2023-03-13T22:49:39.014Z,98138.64
2023-03-13T22:53:37.026Z,98132.42
2023-03-13T22:57:36.024Z,98122.48
2023-03-13T23:01:34.136Z,98115.47
2023-03-13T23:05:32.027Z,98121.88
2023-03-13T23:09:30.019Z,98121.08
2023-03-13T23:13:27.980Z,98115.02
2023-03-13T23:17:25.985Z,98121.21
2023-03-13T23:21:26.965Z,98110.88
2023-03-13T23:25:26.081Z,98102.02
2023-03-13T23:29:23.953Z,98099.75
2023-03-13T23:33:22.041Z,98090.84
2023-03-13T23:37:19.928Z,98082.23
2023-03-13T23:41:22.066Z,98080.28
2023-03-13T23:45:19.922Z,98087.66
2023-03-13T23:49:19.012Z,98081.20
2023-03-13T23:53:16.950Z,98078.88
2023-03-13T23:57:14.952Z,98078.48
